createdAt,value
2023-04-11T00:00:31.708Z,100269.19
2023-04-11T00:01:34.187Z,100271.00
2023-04-11T00:02:36.399Z,100257.78
2023-04-11T00:03:38.958Z,100262.28
2023-04-11T00:04:41.627Z,100256.09
2023-04-11T00:05:44.247Z,100251.73
2023-04-11T00:06:47.513Z,100250.02
2023-04-11T00:07:49.869Z,100259.01
2023-04-11T00:08:52.794Z,100258.29
2023-04-11T00:09:55.113Z,100256.69
2023-04-11T00:10:58.543Z,100261.20
2023-04-11T00:12:00.740Z,100263.00
2023-04-11T00:13:02.913Z,100259.62
2023-04-11T00:14:05.277Z,100254.39
2023-04-11T00:15:07.943Z,100254.39
2023-04-11T00:16:10.693Z,100255.39
2023-04-11T00:17:13.073Z,100259.01
2023-04-11T00:18:15.568Z,100253.78
2023-04-11T00:19:17.555Z,100258.29
2023-04-11T00:20:19.949Z,100261.06
2023-04-11T00:21:22.450Z,100258.39
2023-04-11T00:22:24.422Z,100254.88
2023-04-11T00:23:26.282Z,100252.34
2023-04-11T00:24:28.200Z,100260.34
2023-04-11T00:25:30.398Z,100256.72
2023-04-11T00:26:33.105Z,100260.34
2023-04-11T00:27:35.456Z,100258.63
2023-04-11T00:28:37.527Z,100250.64
2023-04-11T00:29:40.316Z,100252.34
2023-04-11T00:30:42.384Z,100253.30
2023-04-11T00:31:44.577Z,100250.64
2023-04-11T00:32:46.663Z,100247.97
2023-04-11T00:33:49.229Z,100256.10
2023-04-11T00:34:51.498Z,100249.92
2023-04-11T00:35:53.642Z,100256.95
2023-04-11T00:36:56.602Z,100248.11
2023-04-11T00:37:58.769Z,100248.96
2023-04-11T00:39:00.739Z,100245.55
2023-04-11T00:40:07.369Z,100243.87
2023-04-11T00:41:10.201Z,100247.49
2023-04-11T00:42:12.209Z,100250.16
2023-04-11T00:43:16.145Z,100245.78
2023-04-11T00:44:18.024Z,100247.63
2023-04-11T00:45:20.167Z,100245.06
2023-04-11T00:46:22.642Z,100244.34
2023-04-11T00:47:25.008Z,100240.83
2023-04-11T00:48:27.073Z,100244.48
2023-04-11T00:49:30.601Z,100241.92
2023-04-11T00:50:32.814Z,100247.25
2023-04-11T00:51:35.188Z,100244.58
2023-04-11T00:52:37.963Z,100238.53
2023-04-11T00:53:40.700Z,100248.47
2023-04-11T00:54:42.863Z,100250.15
2023-04-11T00:55:44.940Z,100249.43
2023-04-11T00:56:47.628Z,100245.06
2023-04-11T00:57:53.261Z,100255.72
2023-04-11T00:58:56.459Z,100245.19
2023-04-11T01:00:02.193Z,100251.48
2023-04-11T01:01:05.285Z,100255.84
2023-04-11T01:02:09.907Z,100248.95
2023-04-11T01:03:12.490Z,100251.48
2023-04-11T01:04:16.539Z,100251.61
2023-04-11T01:05:19.053Z,100255.13
2023-04-11T01:06:22.481Z,100252.56
2023-04-11T01:07:26.306Z,100255.23
2023-04-11T01:08:29.194Z,100249.05
2023-04-11T01:09:33.716Z,100255.23
2023-04-11T01:10:36.592Z,100251.84
2023-04-11T01:11:39.262Z,100250.99
2023-04-11T01:12:43.391Z,100259.12
2023-04-11T01:13:46.299Z,100261.78
2023-04-11T01:14:48.745Z,100260.80
2023-04-11T01:15:50.722Z,100250.99
2023-04-11T01:16:53.078Z,100252.80
2023-04-11T01:17:55.590Z,100250.27
2023-04-11T01:18:58.166Z,100260.08
2023-04-11T01:20:00.935Z,100249.66
2023-04-11T01:21:03.239Z,100249.78
2023-04-11T01:22:05.944Z,100252.45
2023-04-11T01:23:09.123Z,100255.21
2023-04-11T01:24:11.340Z,100248.08
2023-04-11T01:25:15.064Z,100254.26
2023-04-11T01:26:18.226Z,100256.06
2023-04-11T01:27:20.181Z,100251.83
2023-04-11T01:28:23.204Z,100253.54
2023-04-11T01:29:26.935Z,100249.27
2023-04-11T01:30:29.255Z,100246.60
2023-04-11T01:31:31.806Z,100253.02
2023-04-11T01:32:34.314Z,100241.64
2023-04-11T01:33:36.668Z,100239.11
2023-04-11T01:34:40.532Z,100246.25
2023-04-11T01:35:43.659Z,100248.91
2023-04-11T01:36:47.616Z,100241.16
2023-04-11T01:37:49.961Z,100240.44
2023-04-11T01:38:52.806Z,100241.29
2023-04-11T01:39:54.887Z,100243.09
2023-04-11T01:40:58.889Z,100249.51
2023-04-11T01:42:01.528Z,100246.84
2023-04-11T01:43:03.650Z,100243.43
2023-04-11T01:44:05.645Z,100247.80
2023-04-11T01:45:09.877Z,100248.75
2023-04-11T01:46:14.662Z,100242.48
2023-04-11T01:47:16.980Z,100237.28
2023-04-11T01:48:20.927Z,100236.30
2023-04-11T01:49:24.790Z,100230.97
2023-04-11T01:50:27.763Z,100226.73
2023-04-11T01:51:30.732Z,100235.70
2023-04-11T01:52:34.035Z,100236.66
2023-04-11T01:53:36.206Z,100237.61
2023-04-11T01:54:38.613Z,100231.44
2023-04-11T01:55:41.047Z,100226.38
2023-04-11T01:56:43.762Z,100223.81
2023-04-11T01:57:47.696Z,100222.10
2023-04-11T01:58:50.216Z,100223.95
2023-04-11T01:59:52.852Z,100217.77
2023-04-11T02:00:54.896Z,100220.42
2023-04-11T02:01:58.054Z,100216.91
2023-04-11T02:03:00.743Z,100225.85
2023-04-11T02:04:04.217Z,100223.19
2023-04-11T02:05:08.193Z,100222.37
2023-04-11T02:06:10.860Z,100217.86
2023-04-11T02:07:12.799Z,100222.47
2023-04-11T02:08:15.153Z,100213.63
2023-04-11T02:09:17.159Z,100218.09
2023-04-11T02:10:19.671Z,100221.74
2023-04-11T02:11:21.631Z,100219.08
2023-04-11T02:12:44.192Z,100216.42
2023-04-11T02:13:48.218Z,100219.94
2023-04-11T02:14:50.112Z,100216.42
2023-04-11T02:15:52.321Z,100219.08
2023-04-11T02:16:55.562Z,100215.70
2023-04-11T02:17:58.398Z,100215.70
2023-04-11T02:19:00.455Z,100216.78
2023-04-11T02:20:04.755Z,100212.28
2023-04-11T02:21:07.000Z,100207.09
2023-04-11T02:22:09.431Z,100208.04
2023-04-11T02:23:11.269Z,100206.37
2023-04-11T02:24:14.879Z,100208.89
2023-04-11T02:25:17.068Z,100208.17
2023-04-11T02:26:19.139Z,100205.52
2023-04-11T02:27:21.466Z,100208.17
2023-04-11T02:28:23.568Z,100208.17
2023-04-11T02:29:28.194Z,100204.66
2023-04-11T02:30:30.321Z,100204.66
2023-04-11T02:31:32.809Z,100206.46
2023-04-11T02:32:35.905Z,100206.59
2023-04-11T02:33:37.841Z,100215.44
2023-04-11T02:34:40.642Z,100211.06
2023-04-11T02:35:42.804Z,100208.41
2023-04-11T02:36:44.846Z,100204.03
2023-04-11T02:37:47.110Z,100211.16
2023-04-11T02:38:49.056Z,100206.69
2023-04-11T02:39:51.045Z,100205.97
2023-04-11T02:40:53.117Z,100209.59
2023-04-11T02:41:55.008Z,100200.65
2023-04-11T02:42:57.032Z,100201.60
2023-04-11T02:43:59.373Z,100207.05
2023-04-11T02:45:02.107Z,100197.36
2023-04-11T02:46:12.600Z,100205.25
2023-04-11T02:47:08.684Z,100202.59
2023-04-11T02:48:11.322Z,100198.22
2023-04-11T02:49:15.746Z,100203.54
2023-04-11T02:50:20.156Z,100200.16
2023-04-11T02:51:24.181Z,100199.44
2023-04-11T02:52:26.997Z,100196.77
2023-04-11T02:53:29.176Z,100198.58
2023-04-11T02:54:32.202Z,100199.30
2023-04-11T02:55:35.402Z,100202.09
2023-04-11T02:56:38.066Z,100198.58
2023-04-11T02:57:40.180Z,100201.34
2023-04-11T02:58:45.028Z,100196.87
2023-04-11T02:59:47.962Z,100196.87
2023-04-11T03:00:54.153Z,100194.20
2023-04-11T03:03:08.425Z,100189.15
2023-04-11T03:04:12.771Z,100199.98
2023-04-11T03:05:21.024Z,100203.50
2023-04-11T03:06:24.584Z,100198.09
2023-04-11T03:07:30.092Z,100192.00
2023-04-11T03:08:33.389Z,100197.23
2023-04-11T03:09:37.082Z,100197.23
2023-04-11T03:10:40.493Z,100191.05
2023-04-11T03:11:46.911Z,100195.52
2023-04-11T03:12:49.489Z,100195.75
2023-04-11T03:13:51.455Z,100194.08
2023-04-11T03:14:53.314Z,100193.09
2023-04-11T03:15:55.955Z,100200.22
2023-04-11T03:17:00.008Z,100196.73
2023-04-11T03:18:03.299Z,100193.09
2023-04-11T03:19:05.432Z,100191.41
2023-04-11T03:20:08.884Z,100194.08
2023-04-11T03:21:10.974Z,100193.09
2023-04-11T03:22:15.111Z,100196.73
2023-04-11T03:23:20.370Z,100194.08
2023-04-11T03:24:22.784Z,100191.41
2023-04-11T03:25:26.113Z,100194.14
2023-04-11T03:26:28.887Z,100199.59
2023-04-11T03:27:32.865Z,100195.12
2023-04-11T03:28:36.766Z,100191.61
2023-04-11T03:29:39.166Z,100192.56
2023-04-11T03:30:46.026Z,100191.61
2023-04-11T03:31:50.524Z,100189.80
2023-04-11T03:32:53.657Z,100189.90
2023-04-11T03:33:55.850Z,100193.41
2023-04-11T03:34:59.993Z,100192.56
2023-04-11T03:36:02.301Z,100192.46
2023-04-11T03:37:04.620Z,100200.45
2023-04-11T03:38:07.616Z,100197.78
2023-04-11T03:39:09.632Z,100192.46
2023-04-11T03:40:12.949Z,100202.98
2023-04-11T03:41:16.907Z,100199.46
2023-04-11T03:42:20.506Z,100195.95
2023-04-11T03:43:24.172Z,100200.31
2023-04-11T03:44:27.092Z,100194.99
2023-04-11T03:45:29.541Z,100191.48
2023-04-11T03:46:33.215Z,100196.73
2023-04-11T03:47:38.358Z,100200.31
2023-04-11T03:48:42.632Z,100193.19
2023-04-11T03:49:45.077Z,100202.87
2023-04-11T03:50:48.091Z,100202.87
2023-04-11T03:51:52.151Z,100204.72
2023-04-11T03:52:54.218Z,100197.55
2023-04-11T03:53:56.629Z,100205.53
2023-04-11T03:55:01.803Z,100207.38
2023-04-11T03:56:04.428Z,100205.53
2023-04-11T03:57:08.432Z,100200.22
2023-04-11T03:58:11.733Z,100209.05
2023-04-11T03:59:15.444Z,100207.38
2023-04-11T04:00:19.845Z,100207.38
2023-04-11T04:01:23.904Z,100207.38
2023-04-11T04:02:27.037Z,100205.53
2023-04-11T04:03:29.889Z,100200.22
2023-04-11T04:04:33.481Z,100202.05
2023-04-11T04:05:40.755Z,100204.72
2023-04-11T04:06:44.063Z,100200.22
2023-04-11T04:07:46.724Z,100204.72
2023-04-11T04:08:56.967Z,100201.07
2023-04-11T04:10:00.179Z,100202.05
2023-04-11T04:11:03.136Z,100194.14
2023-04-11T04:12:07.065Z,100197.78
2023-04-11T04:13:11.057Z,100195.95
2023-04-11T04:14:15.078Z,100196.80
2023-04-11T04:15:17.597Z,100185.30
2023-04-11T04:16:21.775Z,100189.67
2023-04-11T04:17:27.081Z,100197.66
2023-04-11T04:18:29.699Z,100189.58
2023-04-11T04:19:31.757Z,100187.77
2023-04-11T04:20:34.248Z,100194.08
2023-04-11T04:21:36.078Z,100190.43
2023-04-11T04:22:38.187Z,100189.47
2023-04-11T04:23:40.843Z,100183.30
2023-04-11T04:24:57.081Z,100183.43
2023-04-11T04:26:01.537Z,100180.54
2023-04-11T04:27:05.239Z,100187.54
2023-04-11T04:28:18.458Z,100185.96
2023-04-11T04:29:20.722Z,100185.86
2023-04-11T04:30:25.003Z,100185.86
2023-04-11T04:31:29.758Z,100186.69
2023-04-11T04:32:35.257Z,100183.20
2023-04-11T04:33:39.738Z,100176.89
2023-04-11T04:34:44.481Z,100178.60
2023-04-11T04:35:46.898Z,100182.12
2023-04-11T04:36:49.494Z,100167.11
2023-04-11T04:37:58.154Z,100178.60
2023-04-11T04:39:02.564Z,100171.34
2023-04-11T04:40:07.541Z,100167.83
2023-04-11T04:41:11.479Z,100164.21
2023-04-11T04:42:14.606Z,100165.06
2023-04-11T04:43:20.295Z,100157.80
2023-04-11T04:44:24.341Z,100161.09
2023-04-11T04:45:29.075Z,100156.59
2023-04-11T04:46:33.190Z,100160.86
2023-04-11T04:47:36.780Z,100153.70
2023-04-11T04:48:39.086Z,100161.45
2023-04-11T04:49:42.744Z,100156.61
2023-04-11T04:50:45.134Z,100160.38
2023-04-11T04:51:47.615Z,100160.30
2023-04-11T04:52:50.813Z,100150.61
2023-04-11T04:53:54.391Z,100147.80
2023-04-11T04:54:58.049Z,100145.95
2023-04-11T04:56:00.983Z,100139.58
2023-04-11T04:57:04.281Z,100138.97
2023-04-11T04:58:07.635Z,100140.69
2023-04-11T04:59:10.371Z,100133.09
2023-04-11T05:00:13.502Z,100140.52
2023-04-11T05:01:17.779Z,100140.90
2023-04-11T05:02:20.742Z,100136.89
2023-04-11T05:03:23.922Z,100135.58
2023-04-11T05:04:26.879Z,100129.88
2023-04-11T05:05:33.533Z,100131.33
2023-04-11T05:06:36.407Z,100130.84
2023-04-11T05:07:38.927Z,100133.25
2023-04-11T05:08:40.932Z,100131.89
2023-04-11T05:09:45.049Z,100136.69
2023-04-11T05:10:49.642Z,100135.28
2023-04-11T05:11:52.546Z,100132.34
2023-04-11T05:12:56.402Z,100134.60
2023-04-11T05:13:58.693Z,100136.00
2023-04-11T05:15:15.014Z,100125.98
2023-04-11T05:16:18.738Z,100127.64
2023-04-11T05:17:22.737Z,100133.41
2023-04-11T05:18:25.761Z,100125.03
2023-04-11T05:19:27.828Z,100132.89
2023-04-11T05:20:30.041Z,100125.52
2023-04-11T05:21:33.501Z,100123.50
2023-04-11T05:22:36.330Z,100132.52
2023-04-11T05:23:38.634Z,100125.56
2023-04-11T05:24:40.784Z,100126.50
2023-04-11T05:25:45.107Z,100133.50
2023-04-11T05:26:48.463Z,100132.44
2023-04-11T05:27:52.347Z,100130.00
2023-04-11T05:28:56.549Z,100132.77
2023-04-11T05:29:58.905Z,100127.48
2023-04-11T05:31:02.370Z,100132.08
2023-04-11T05:32:05.412Z,100119.75
2023-04-11T05:33:08.749Z,100118.59
2023-04-11T05:34:11.803Z,100125.50
2023-04-11T05:35:14.164Z,100117.44
2023-04-11T05:36:25.065Z,100113.91
2023-04-11T05:37:27.169Z,100121.72
2023-04-11T05:38:29.333Z,100118.11
2023-04-11T05:39:31.384Z,100113.00
2023-04-11T05:40:33.526Z,100122.09
2023-04-11T05:41:35.530Z,100115.95
2023-04-11T05:42:39.025Z,100116.84
2023-04-11T05:43:41.022Z,100118.63
2023-04-11T05:44:44.787Z,100108.61
2023-04-11T05:45:47.135Z,100118.56
2023-04-11T05:46:51.718Z,100113.91
2023-04-11T05:47:53.928Z,100121.14
2023-04-11T05:48:56.021Z,100122.44
2023-04-11T05:49:58.777Z,100116.97
2023-04-11T05:51:14.851Z,100116.70
2023-04-11T05:52:16.880Z,100119.14
2023-04-11T05:53:19.620Z,100117.73
2023-04-11T05:55:44.360Z,100117.73
2023-04-11T05:56:46.493Z,100119.20
2023-04-11T05:57:48.727Z,100115.99
2023-04-11T05:58:50.618Z,100114.41
2023-04-11T05:59:53.176Z,100119.93
2023-04-11T06:00:57.723Z,100117.69
2023-04-11T06:02:00.086Z,100117.12
2023-04-11T06:03:03.555Z,100112.05
2023-04-11T06:04:05.984Z,100110.51
2023-04-11T06:05:11.254Z,100113.62
2023-04-11T06:06:14.105Z,100106.85
2023-04-11T06:07:16.261Z,100107.13
2023-04-11T06:08:18.587Z,100109.27
2023-04-11T06:09:21.197Z,100111.22
2023-04-11T06:10:23.861Z,100102.47
2023-04-11T06:11:25.820Z,100102.75
2023-04-11T06:12:27.873Z,100105.70
2023-04-11T06:13:29.930Z,100116.41
2023-04-11T06:14:32.293Z,100105.01
2023-04-11T06:15:34.914Z,100113.16
2023-04-11T06:16:38.554Z,100105.44
2023-04-11T06:17:40.619Z,100101.22
2023-04-11T06:18:42.656Z,100112.05
2023-04-11T06:19:44.674Z,100106.00
2023-04-11T06:20:47.083Z,100105.84
2023-04-11T06:21:49.667Z,100104.30
2023-04-11T06:22:51.768Z,100106.13
2023-04-11T06:23:54.248Z,100102.75
2023-04-11T06:24:56.820Z,100106.28
2023-04-11T06:25:59.396Z,100101.90
2023-04-11T06:27:01.974Z,100102.75
2023-04-11T06:28:04.319Z,100104.73
2023-04-11T06:29:07.215Z,100099.38
2023-04-11T06:30:10.587Z,100102.17
2023-04-11T06:31:12.661Z,100103.19
2023-04-11T06:32:14.700Z,100097.95
2023-04-11T06:33:16.798Z,100099.66
2023-04-11T06:34:18.906Z,100107.53
2023-04-11T06:35:21.121Z,100093.33
2023-04-11T06:36:23.177Z,100101.20
2023-04-11T06:37:25.144Z,100103.03
2023-04-11T06:38:28.266Z,100104.73
2023-04-11T06:39:30.326Z,100105.58
2023-04-11T06:40:32.539Z,100098.37
2023-04-11T06:41:34.743Z,100097.55
2023-04-11T06:42:37.218Z,100093.88
2023-04-11T06:43:39.206Z,100092.05
2023-04-11T06:44:41.243Z,100090.91
2023-04-11T06:45:43.802Z,100096.14
2023-04-11T06:46:47.305Z,100085.44
2023-04-11T06:47:49.580Z,100088.81
2023-04-11T06:48:52.444Z,100088.81
2023-04-11T06:49:55.642Z,100088.66
2023-04-11T06:50:58.460Z,100088.53
2023-04-11T06:52:01.148Z,100084.03
2023-04-11T06:53:05.306Z,100092.75
2023-04-11T06:54:11.284Z,100099.78
2023-04-11T06:55:13.777Z,100099.78
2023-04-11T06:56:16.972Z,100096.98
2023-04-11T06:57:20.566Z,100100.50
2023-04-11T06:58:23.184Z,100095.00
2023-04-11T06:59:25.025Z,100097.67
2023-04-11T07:00:27.566Z,100090.34
2023-04-11T07:01:30.019Z,100099.95
2023-04-11T07:02:34.441Z,100088.95
2023-04-11T07:03:38.597Z,100082.62
2023-04-11T07:04:43.647Z,100079.83
2023-04-11T07:05:47.859Z,100089.40
2023-04-11T07:06:53.540Z,100075.86
2023-04-11T07:07:57.688Z,100085.44
2023-04-11T07:09:00.755Z,100085.15
2023-04-11T07:10:05.796Z,100078.66
2023-04-11T07:11:09.612Z,100077.53
2023-04-11T07:12:13.831Z,100066.69
2023-04-11T07:13:17.852Z,100075.26
2023-04-11T07:14:20.142Z,100069.61
2023-04-11T07:15:23.553Z,100067.63
2023-04-11T07:16:27.886Z,100071.88
2023-04-11T07:17:30.616Z,100070.02
2023-04-11T07:18:33.215Z,100061.86
2023-04-11T07:19:35.613Z,100062.42
2023-04-11T07:20:37.672Z,100061.41
2023-04-11T07:21:40.475Z,100063.80
2023-04-11T07:22:42.502Z,100047.56
2023-04-11T07:23:48.013Z,100049.27
2023-04-11T07:24:52.510Z,100057.87
2023-04-11T07:25:56.350Z,100062.09
2023-04-11T07:27:02.134Z,100056.15
2023-04-11T07:28:05.816Z,100061.33
2023-04-11T07:29:11.003Z,100054.77
2023-04-11T07:30:15.253Z,100056.95
2023-04-11T07:31:18.016Z,100047.98
2023-04-11T07:32:25.682Z,100051.39
2023-04-11T07:33:28.881Z,100052.09
2023-04-11T07:34:31.412Z,100042.73
2023-04-11T07:35:35.938Z,100049.29
2023-04-11T07:36:39.693Z,100046.98
2023-04-11T07:37:42.025Z,100046.14
2023-04-11T07:38:43.893Z,100033.00
2023-04-11T07:39:45.738Z,100038.80
2023-04-11T07:40:47.866Z,100035.38
2023-04-11T07:41:49.878Z,100028.02
2023-04-11T07:42:52.183Z,100036.83
2023-04-11T07:43:55.612Z,100040.37
2023-04-11T07:44:57.854Z,100036.69
2023-04-11T07:45:59.952Z,100027.70
2023-04-11T07:47:05.318Z,100025.28
2023-04-11T07:48:08.089Z,100028.41
2023-04-11T07:49:09.913Z,100026.68
2023-04-11T07:50:13.367Z,100031.18
2023-04-11T07:51:15.958Z,100020.78
2023-04-11T07:52:18.003Z,100019.93
2023-04-11T07:53:21.159Z,100027.42
2023-04-11T07:54:23.493Z,100012.45
2023-04-11T07:55:25.912Z,100019.95
2023-04-11T07:56:27.963Z,100017.74
2023-04-11T07:57:30.774Z,100018.53
2023-04-11T07:58:33.229Z,100005.50
2023-04-11T07:59:35.219Z,100012.31
2023-04-11T08:00:37.668Z,100013.25
2023-04-11T08:01:39.782Z,100004.19
2023-04-11T08:02:45.187Z,100016.13
2023-04-11T08:03:48.385Z,100010.61
2023-04-11T08:04:51.148Z,100013.37
2023-04-11T08:05:53.754Z,99996.96
2023-04-11T08:06:55.714Z,100005.08
2023-04-11T08:07:57.627Z,100008.17
2023-04-11T08:08:59.531Z,100001.17
2023-04-11T08:10:01.945Z,100006.05
2023-04-11T08:11:04.717Z,99998.61
2023-04-11T08:12:06.792Z,99990.28
2023-04-11T08:13:09.443Z,100005.32
2023-04-11T08:14:11.805Z,99997.36
2023-04-11T08:15:14.519Z,99992.77
2023-04-11T08:16:16.750Z,99997.12
2023-04-11T08:17:27.655Z,99993.08
2023-04-11T08:18:23.233Z,100004.83
2023-04-11T08:19:25.148Z,99994.97
2023-04-11T08:20:41.140Z,99989.53
2023-04-11T08:22:52.736Z,99993.16
2023-04-11T08:23:54.721Z,99996.53
2023-04-11T08:24:57.753Z,99984.09
2023-04-11T08:26:00.333Z,99995.73
2023-04-11T08:27:03.092Z,99988.34
2023-04-11T08:29:18.092Z,99975.39
2023-04-11T08:30:21.022Z,99982.38
2023-04-11T08:31:23.205Z,99983.06
2023-04-11T08:32:26.126Z,99987.61
2023-04-11T08:33:28.611Z,99992.84
2023-04-11T08:34:33.575Z,99991.52
2023-04-11T08:35:35.626Z,99984.30
2023-04-11T08:36:38.174Z,99985.48
2023-04-11T08:37:40.432Z,99986.67
2023-04-11T08:38:43.206Z,99975.05
2023-04-11T08:39:45.702Z,99972.16
2023-04-11T08:40:47.751Z,99969.13
2023-04-11T08:41:50.662Z,99977.06
2023-04-11T08:43:00.451Z,99970.64
2023-04-11T08:44:02.871Z,99963.73
2023-04-11T08:45:13.028Z,99966.44
2023-04-11T08:46:18.765Z,99967.28
2023-04-11T08:47:22.812Z,99958.86
2023-04-11T08:48:24.804Z,99955.81
2023-04-11T08:49:30.636Z,99954.78
2023-04-11T08:51:46.867Z,99947.67
2023-04-11T08:52:49.157Z,99956.29
2023-04-11T08:53:55.654Z,99956.80
2023-04-11T08:54:58.258Z,99942.97
2023-04-11T08:56:00.240Z,99950.88
2023-04-11T08:57:03.567Z,99949.88
2023-04-11T08:58:06.317Z,99950.53
2023-04-11T08:59:12.396Z,99938.74
2023-04-11T09:00:19.137Z,99937.55
2023-04-11T09:01:30.428Z,99939.05
2023-04-11T09:02:34.168Z,99947.64
2023-04-11T09:03:53.830Z,99944.60
2023-04-11T09:05:00.637Z,99936.17
2023-04-11T09:06:06.940Z,99930.23
2023-04-11T09:07:13.514Z,99928.85
2023-04-11T09:08:16.399Z,99920.41
2023-04-11T09:09:28.884Z,99928.65
2023-04-11T09:10:31.579Z,99928.30
2023-04-11T09:13:20.308Z,99927.34
2023-04-11T09:14:28.153Z,99922.54
2023-04-11T09:15:30.566Z,99914.91
2023-04-11T09:16:37.728Z,99918.09
2023-04-11T09:17:43.897Z,99914.20
2023-04-11T09:18:46.902Z,99918.89
2023-04-11T09:19:50.563Z,99913.14
2023-04-11T09:20:58.749Z,99910.25
2023-04-11T09:22:04.259Z,99912.59
2023-04-11T09:23:06.353Z,99913.92
2023-04-11T09:24:16.908Z,99919.81
2023-04-11T09:25:23.701Z,99918.61
2023-04-11T09:26:28.594Z,99900.17
2023-04-11T09:27:31.697Z,99908.76
2023-04-11T09:28:46.536Z,99900.47
2023-04-11T09:29:48.653Z,99898.61
2023-04-11T09:30:55.592Z,99900.11
2023-04-11T09:31:58.696Z,99898.91
2023-04-11T09:34:28.151Z,99898.31
2023-04-11T09:35:30.619Z,99906.06
2023-04-11T09:36:34.306Z,99894.78
2023-04-11T09:39:22.336Z,99889.98
2023-04-11T09:40:26.640Z,99885.73
2023-04-11T09:41:35.954Z,99887.42
2023-04-11T09:42:42.905Z,99888.92
2023-04-11T09:43:54.139Z,99887.03
2023-04-11T09:44:57.310Z,99890.58
2023-04-11T09:46:10.893Z,99871.69
2023-04-11T09:47:13.070Z,99874.38
2023-04-11T09:48:15.617Z,99870.67
2023-04-11T09:50:28.693Z,99888.30
2023-04-11T09:51:37.017Z,99896.34
2023-04-11T09:52:45.354Z,99892.63
2023-04-11T09:53:50.531Z,99882.03
2023-04-11T09:54:54.050Z,99870.38
2023-04-11T09:55:56.665Z,99869.54
2023-04-11T09:57:02.618Z,99883.20
2023-04-11T09:58:05.423Z,99871.75
2023-04-11T09:59:07.673Z,99882.25
2023-04-11T10:01:23.886Z,99876.20
2023-04-11T10:02:27.449Z,99873.98
2023-04-11T10:03:31.178Z,99874.98
2023-04-11T10:04:33.808Z,99868.94
2023-04-11T10:05:41.406Z,99863.70
2023-04-11T10:07:08.858Z,99864.87
2023-04-11T10:08:31.938Z,99866.07
2023-04-11T10:13:27.708Z,99856.73
2023-04-11T10:14:41.842Z,99850.30
2023-04-11T10:17:20.753Z,99853.76
2023-04-11T10:18:20.824Z,99849.29
2023-04-11T10:19:23.649Z,99853.33
2023-04-11T10:22:02.052Z,99844.47
2023-04-11T10:23:06.678Z,99848.74
2023-04-11T10:24:13.482Z,99839.84
2023-04-11T10:25:20.867Z,99842.34
2023-04-11T10:26:26.800Z,99853.98
2023-04-11T10:29:39.234Z,99827.66
2023-04-11T10:30:47.641Z,99824.88
2023-04-11T10:32:11.250Z,99826.37
2023-04-11T10:33:19.708Z,99822.52
2023-04-11T10:34:26.464Z,99845.39
2023-04-11T10:35:29.768Z,99821.31
2023-04-11T10:36:53.262Z,99816.27
2023-04-11T10:37:55.578Z,99820.17
2023-04-11T10:38:59.487Z,99808.53
2023-04-11T10:40:04.660Z,99811.23
2023-04-11T10:41:26.688Z,99813.09
2023-04-11T10:42:43.146Z,99811.39
2023-04-11T10:43:46.812Z,99802.49
2023-04-11T10:45:10.896Z,99802.49
2023-04-11T10:46:26.316Z,99796.25
2023-04-11T10:47:31.782Z,99807.04
2023-04-11T10:49:50.766Z,99789.11
2023-04-11T10:50:55.621Z,99796.47
2023-04-11T10:52:19.346Z,99797.31
2023-04-11T10:53:38.571Z,99809.11
2023-04-11T10:54:41.660Z,99814.03
2023-04-11T10:55:54.357Z,99795.33
2023-04-11T10:56:56.896Z,99799.57
2023-04-11T10:58:21.836Z,99798.42
2023-04-11T11:02:29.013Z,99802.45
2023-04-11T11:03:32.631Z,99777.80
2023-04-11T11:04:37.431Z,99794.16
2023-04-11T11:05:46.447Z,99791.12
2023-04-11T11:06:56.964Z,99777.84
2023-04-11T11:07:55.811Z,99784.43
2023-04-11T11:08:57.997Z,99799.75
2023-04-11T11:10:02.368Z,99792.70
2023-04-11T11:11:07.847Z,99803.63
2023-04-11T11:12:17.307Z,99797.44
2023-04-11T11:13:20.913Z,99794.94
2023-04-11T11:14:38.769Z,99793.94
2023-04-11T11:15:53.745Z,99793.63
2023-04-11T11:16:57.809Z,99801.88
2023-04-11T11:18:00.209Z,99785.57
2023-04-11T11:19:04.734Z,99796.88
2023-04-11T11:20:18.230Z,99791.17
2023-04-11T11:22:28.634Z,99796.20
2023-04-11T11:23:31.870Z,99788.31
2023-04-11T11:24:37.092Z,99780.58
2023-04-11T11:25:39.299Z,99782.77
2023-04-11T11:26:43.250Z,99781.26
2023-04-11T11:27:45.544Z,99779.75
2023-04-11T11:28:50.273Z,99786.16
2023-04-11T11:32:37.746Z,99783.61
2023-04-11T11:34:43.682Z,99781.95
2023-04-11T11:37:06.264Z,99773.52
2023-04-11T11:39:21.295Z,99782.13
2023-04-11T11:40:24.468Z,99775.27
2023-04-11T11:41:27.595Z,99774.27
2023-04-11T11:42:29.937Z,99769.88
2023-04-11T11:43:36.021Z,99768.04
2023-04-11T11:44:39.178Z,99776.11
2023-04-11T11:45:42.609Z,99768.70
2023-04-11T11:47:02.818Z,99785.69
2023-04-11T11:49:51.742Z,99773.88
2023-04-11T11:50:55.931Z,99767.53
2023-04-11T11:51:58.133Z,99755.08
2023-04-11T11:53:16.786Z,99759.80
2023-04-11T11:54:18.986Z,99767.87
2023-04-11T11:57:54.808Z,99755.44
2023-04-11T11:58:57.202Z,99749.20
2023-04-11T12:00:02.562Z,99748.17
2023-04-11T12:02:16.565Z,99745.98
2023-04-11T12:03:25.227Z,99751.06
2023-04-11T12:04:27.547Z,99755.08
2023-04-11T12:05:32.574Z,99753.75
2023-04-11T12:06:35.249Z,99743.99
2023-04-11T12:07:38.364Z,99744.99
2023-04-11T12:08:40.969Z,99743.64
2023-04-11T12:09:47.221Z,99734.91
2023-04-11T12:10:51.382Z,99726.33
2023-04-11T12:11:56.113Z,99730.02
2023-04-11T12:12:58.387Z,99732.70
2023-04-11T12:14:00.525Z,99737.27
2023-04-11T12:15:11.503Z,99729.20
2023-04-11T12:16:16.144Z,99729.35
2023-04-11T12:17:18.478Z,99732.89
2023-04-11T12:18:25.453Z,99726.00
2023-04-11T12:19:33.138Z,99736.09
2023-04-11T12:20:35.598Z,99727.19
2023-04-11T12:21:37.897Z,99728.19
2023-04-11T12:22:52.143Z,99727.00
2023-04-11T12:23:57.994Z,99719.78
2023-04-11T12:26:24.932Z,99715.05
2023-04-11T12:27:29.946Z,99716.25
2023-04-11T12:28:32.059Z,99715.06
2023-04-11T12:29:34.024Z,99712.03
2023-04-11T12:30:36.752Z,99716.08
2023-04-11T12:31:45.340Z,99713.05
2023-04-11T12:32:50.169Z,99708.15
2023-04-11T12:33:52.786Z,99702.31
2023-04-11T12:34:55.449Z,99704.66
2023-04-11T12:35:57.625Z,99697.06
2023-04-11T12:37:03.469Z,99696.91
2023-04-11T12:38:05.461Z,99702.80
2023-04-11T12:39:07.762Z,99701.60
2023-04-11T12:40:11.318Z,99690.47
2023-04-11T12:41:30.147Z,99703.77
2023-04-11T12:42:20.953Z,99690.97
2023-04-11T12:43:21.731Z,99687.09
2023-04-11T12:44:23.965Z,99699.70
2023-04-11T12:45:27.889Z,99686.78
2023-04-11T12:46:31.164Z,99695.03
2023-04-11T12:47:34.266Z,99690.00
2023-04-11T12:48:36.396Z,99695.06
2023-04-11T12:49:39.741Z,99689.18
2023-04-11T12:50:44.367Z,99694.71
2023-04-11T12:51:47.114Z,99685.98
2023-04-11T12:52:50.394Z,99679.44
2023-04-11T12:53:52.506Z,99685.31
2023-04-11T12:54:55.092Z,99677.39
2023-04-11T12:55:57.364Z,99679.42
2023-04-11T12:57:05.618Z,99677.77
2023-04-11T12:58:09.235Z,99670.70